x

Sentry Shoal (46131) Wave Buoy

10:00 - Thu 24th Jul 2014 All times are PDT. -7 hours from GMT.

  • Sig Wave height 0.3ft
  • Peak Period 2s
  • Wind
    7mph, 9mph gusts
  • Sea Temp 64°f
  • Air Temp 60°f
  • Sea Pressure 1018.9mb
  • Sentry Shoal
  • Sentry Shoal

More Historic Weather Station data

Upgrade to MSW Pro to gain access to the past 30 days of data for over 8000 Wavebouys and Weather Stations around the globe.

Join Pro

Comparision Forecast

View Surf forecast
   
jeu. 07/24 10:00 0.3ft 2s 7 9 mph 1018.9mb 64f 60f
9:00 0.7ft 3s 7 9 mph 1018.2mb 63f 60f
8:00 0.7ft 3s 9
mph
1017.6mb 63f 59f
7:00 1ft 3s 7 11 mph 1016.8mb 63f 59f
6:00 1.3ft 4s 4 7 mph 1016.1mb 63f 58f
5:00 1.3ft 4s 4
mph
1015.5mb 63f 59f
4:00 1.6ft 4s 7 11 mph 1014.8mb 63f 59f
3:00 2ft 4s 11 13 mph 1014.7mb 63f 59f
2:00 2ft 4s 18 20 mph 1014.2mb 63f 58f
1:00 2ft 4s 18 20 mph 1014.1mb 63f 58f
12:00 1.6ft 3s 20 22 mph 1014.1mb 63f 59f
mer. 07/23 11:00 1.3ft 2s 20 25 mph 1013.9mb 64f 59f
10:00 0.7ft 7s 18 22 mph 1013.9mb 64f 59f
9:00  -  2s 4 7 mph 1013.7mb 64f 61f
8:00  -  3s 4
mph
1013.5mb 64f 62f
7:00  -  3s  -  2 mph 1013.8mb 65f 62f
6:00 0.3ft 3s 2
mph
1014mb 65f 62f
5:00 0.3ft 2s 2 4 mph 1014.2mb 65f 62f
4:00 0.3ft 2s 2 4 mph 1014.4mb 64f 62f
3:00 0.3ft 3s 2
mph
1014.8mb 64f 61f
2:00 0.3ft 2s  -  mph 1014.7mb 64f 62f
1:00 0.3ft 2s 2
mph
1015mb 64f 62f
12:00 0.3ft 3s 4
mph
1014.5mb 63f 62f
11:00 0.3ft 3s 7 9 mph 1014.6mb 63f 62f
10:00 0.3ft 2s 7 9 mph 1014.7mb 63f 61f
9:00 0.3ft 2s 11 13 mph 1014.6mb 63f 61f
8:00 0.3ft 2s 9 11 mph 1014.7mb 63f 61f
7:00 0.3ft 3s 9
mph
1015mb 63f 62f
6:00 0.3ft 3s 4
mph
1014.8mb 64f 63f
5:00 0.3ft 3s 4
mph
1015.3mb 64f 63f
4:00 0.7ft 2s 4
mph
1015.4mb 64f 63f
3:00 0.7ft 3s 4 7 mph 1015.6mb 64f 64f
2:00 0.7ft 3s 4
mph
1015.7mb 64f 64f
1:00 1ft 3s 7 9 mph 1016mb 64f 64f
12:00 0.7ft 3s 7 9 mph 1016.2mb 64f 64f
mar. 07/22 11:00 1ft 3s 11 13 mph 1016.1mb 64f 65f
10:00 1ft 3s 7 9 mph 1016.4mb 64f 64f
9:00 1ft 3s 11 13 mph 1016.3mb 64f 64f
8:00 1ft 3s 7 9 mph 1016mb 64f 65f
7:00 1ft 3s 9
mph
1015.9mb 64f 65f
6:00 1ft 3s 7 9 mph 1016.1mb 64f 65f
5:00 1ft 3s 9
mph
1016.3mb 64f 66f
4:00 1ft 3s 11 13 mph 1016.5mb 64f 66f
3:00 1ft 3s 11 13 mph 1016.8mb 64f 66f
2:00 1.3ft 3s 13 18 mph 1016.9mb 64f 65f
1:00 1.3ft 3s 13 18 mph 1016.8mb 63f 64f
12:00 1.3ft 3s 16 20 mph 1016.6mb 63f 64f
11:00 1.3ft 2s 13 18 mph 1016.5mb 63f 64f
10:00 1.3ft 3s 13 16 mph 1016.4mb 63f 63f
9:00 1.6ft 3s 13 16 mph 1016.2mb 63f 63f
8:00 2ft 3s 13 18 mph 1015.9mb 63f 63f
7:00 2ft 4s 18 20 mph 1014.9mb 64f 63f
6:00 2ft 3s 16 18 mph 1014.7mb 63f 63f
5:00 2.5ft 4s 18 20 mph 1014.5mb 63f 64f
4:00 2.5ft 4s 18 20 mph 1014.3mb 63f 64f
3:00 2ft 3s 13 18 mph 1014.4mb 63f 64f
2:00 1.3ft 3s 11 16 mph 1014.4mb 62f 64f
1:00 1.3ft 4s 13
mph
1014.4mb 62f 64f
12:00 1.3ft 4s 16 18 mph 1013.9mb 62f 65f
lun. 07/21 11:00 1.3ft 3s 9 11 mph 1014mb 62f 64f
10:00 1.3ft 3s 13 16 mph 1013.8mb 62f 65f
9:00 1ft 4s 16 18 mph 1013.4mb 62f 65f
8:00 1.3ft 3s 9 11 mph 1013.7mb 62f 64f
7:00 1.6ft 3s 13 16 mph 1013.7mb 62f 64f
6:00 1.3ft 3s 13 16 mph 1014.1mb 62f 65f
5:00 1.3ft 3s 13 16 mph 1014.3mb 62f 64f
4:00 1.3ft 3s 13 18 mph 1014.6mb 62f 64f
3:00 1.3ft 3s 16 18 mph 1014.9mb 62f 64f
2:00 1ft 2s 16 18 mph 1015mb 63f 63f
1:00 0.3ft 2s 13 16 mph 1015.6mb 63f 63f
12:00  -  2s 11 13 mph 1016.1mb 63f 61f
11:00 0.3ft 4s 7 9 mph 1016.5mb 63f 60f
10:00  -  2s 2
mph
1016.6mb 63f 60f
9:00  -  2s 2 4 mph 1016.8mb 63f 59f
8:00  -  2s 4
mph
1016.6mb 62f 58f
7:00 0.3ft 2s 7 9 mph 1016.1mb 62f 58f
6:00 0.3ft 2s 7
mph
1015.5mb 62f 58f
5:00 0.3ft 2s 7 9 mph 1015.2mb 62f 58f
4:00 0.7ft 2s 9 11 mph 1014.8mb 62f 59f
3:00 0.3ft 2s 13
mph
1014.3mb 61f 60f
2:00 0.7ft 2s 9 11 mph 1014.5mb 61f 60f
1:00 0.7ft 2s 11 16 mph 1014.3mb 61f 60f
12:00 0.3ft 3s 13 16 mph 1013.9mb 61f 62f
dim. 07/20 11:00 0.3ft 3s 7 11 mph 1013.8mb 62f 63f
10:00  -  3s 4
mph
1013.7mb 62f 62f
9:00  -  2s 4
mph
1013.5mb 62f 62f
8:00  -  4s 4 7 mph 1013.4mb 62f 62f
7:00 0.3ft 3s 2
mph
1013.5mb 62f 63f